Time;durP1;ratioP1;P1;durP2;ratioP2;P2;SDS_P1;SDS_P2;PMS_P1;PMS_P2;Temp;Humidity;BMP_temperature;BMP_pressure;BME280_temperature;BME280_humidity;BME280_pressure;Samples;Min_cycle;Max_cycle;Signal;HPM_P1;HPM_P2
2023/12/03 00:02:01;;;;;;;53.30;15.25;;;;;;;;;;4937160;29;20048;-91
2023/12/03 00:04:44;;;;;;;40.80;13.77;;;;;;;;;;4937138;29;20056;-91
2023/12/03 00:07:25;;;;;;;52.28;16.17;;;;;;;;;;4936247;29;20125;-91
2023/12/03 00:09:53;;;;;;;44.95;13.45;;;;;;;;;;4937065;29;20078;-91
2023/12/03 00:12:34;;;;;;;45.45;15.98;;;;;;;;;;4936075;29;20275;-92
2023/12/03 00:15:14;;;;;;;45.30;15.80;;;;;;;;;;4935464;29;20071;-92
2023/12/03 00:18:13;;;;;;;49.10;16.00;;;;;;;;;;5152351;27;24405;-92
2023/12/03 00:20:55;;;;;;;39.63;15.43;;;;;;;;;;5136222;28;20066;-90
2023/12/03 00:23:28;;;;;;;45.17;15.30;;;;;;;;;;5153130;27;20058;-90
2023/12/03 00:26:11;;;;;;;48.83;15.70;;;;;;;;;;5136195;28;20035;-92
2023/12/03 00:28:44;;;;;;;53.78;16.42;;;;;;;;;;5136605;27;20031;-93
2023/12/03 00:31:24;;;;;;;45.42;16.13;;;;;;;;;;5135124;27;20046;-91
2023/12/03 00:33:56;;;;;;;51.47;16.20;;;;;;;;;;5134613;27;20036;-91
2023/12/03 00:36:37;;;;;;;45.13;14.57;;;;;;;;;;5134772;27;20051;-90
2023/12/03 00:39:17;;;;;;;52.25;16.75;;;;;;;;;;5132377;28;20345;-91
2023/12/03 00:41:58;;;;;;;37.53;13.38;;;;;;;;;;5131672;27;20043;-91
2023/12/03 00:44:41;;;;;;;49.60;16.20;;;;;;;;;;5147342;27;20058;-91
2023/12/03 00:47:22;;;;;;;55.42;15.75;;;;;;;;;;5129165;27;20099;-92
2023/12/03 00:50:04;;;;;;;51.65;16.98;;;;;;;;;;5127402;27;20376;-91
2023/12/03 00:52:34;;;;;;;48.03;14.93;;;;;;;;;;5127020;28;20062;-91
2023/12/03 00:55:08;;;;;;;48.85;15.07;;;;;;;;;;5126904;27;20051;-91
2023/12/03 00:57:46;;;;;;;53.95;16.80;;;;;;;;;;5128627;27;20070;-92
2023/12/03 01:00:27;;;;;;;47.47;14.38;;;;;;;;;;5128056;27;20130;-91
2023/12/03 01:02:56;;;;;;;47.65;15.48;;;;;;;;;;5127919;28;20043;-92
2023/12/03 01:05:38;;;;;;;41.58;13.35;;;;;;;;;;5146533;27;20050;-92
2023/12/03 01:08:08;;;;;;;64.63;18.42;;;;;;;;;;5135210;27;20085;-91
2023/12/03 01:10:50;;;;;;;37.30;15.10;;;;;;;;;;5132414;28;20047;-91
2023/12/03 01:13:19;;;;;;;55.13;15.38;;;;;;;;;;5126458;28;20057;-92
2023/12/03 01:15:53;;;;;;;47.75;15.15;;;;;;;;;;5128614;28;20058;-91
2023/12/03 01:18:24;;;;;;;38.13;14.32;;;;;;;;;;5127726;27;20319;-91
2023/12/03 01:21:05;;;;;;;48.47;17.08;;;;;;;;;;5127531;28;20069;-90
2023/12/03 01:23:38;;;;;;;43.05;15.68;;;;;;;;;;5126870;27;20058;-91
2023/12/03 01:26:07;;;;;;;54.75;16.17;;;;;;;;;;5126599;28;20067;-91
2023/12/03 01:28:39;;;;;;;50.22;16.73;;;;;;;;;;5118585;28;20043;-91
2023/12/03 01:31:20;;;;;;;44.22;14.13;;;;;;;;;;5117287;28;20051;-91
2023/12/03 01:34:02;;;;;;;53.33;15.30;;;;;;;;;;5117324;28;20040;-91
2023/12/03 01:36:42;;;;;;;41.80;15.85;;;;;;;;;;5113707;28;20062;-91
2023/12/03 01:39:26;;;;;;;43.25;14.45;;;;;;;;;;5130396;28;20076;-91
2023/12/03 01:42:02;;;;;;;39.13;13.85;;;;;;;;;;5112588;28;20157;-91
2023/12/03 01:44:40;;;;;;;46.75;17.70;;;;;;;;;;5113516;28;20047;-91
2023/12/03 01:47:11;;;;;;;48.88;16.95;;;;;;;;;;5115914;28;20043;-91
2023/12/03 01:49:40;;;;;;;51.40;16.27;;;;;;;;;;5118705;28;20048;-90
2023/12/03 01:55:06;;;;;;;46.47;15.20;;;;;;;;;;5066516;28;20060;-91
2023/12/03 01:57:39;;;;;;;55.92;15.48;;;;;;;;;;5051623;28;20049;-91
2023/12/03 02:00:13;;;;;;;52.17;17.48;;;;;;;;;;5050749;28;20060;-91
2023/12/03 02:02:54;;;;;;;45.90;14.30;;;;;;;;;;5051716;28;20067;-92
2023/12/03 02:05:35;;;;;;;42.10;14.15;;;;;;;;;;5052389;28;20040;-91
2023/12/03 02:08:12;;;;;;;47.55;18.02;;;;;;;;;;5055375;28;20036;-92
2023/12/03 02:10:54;;;;;;;34.42;14.80;;;;;;;;;;5057022;28;20055;-92
2023/12/03 02:13:23;;;;;;;52.60;15.82;;;;;;;;;;5052885;28;20121;-92
2023/12/03 02:16:05;;;;;;;46.60;17.23;;;;;;;;;;5054115;28;20053;-91
2023/12/03 02:18:48;;;;;;;51.05;18.75;;;;;;;;;;5053131;28;20118;-91
2023/12/03 02:21:32;;;;;;;37.65;13.95;;;;;;;;;;5054116;28;20052;-90
2023/12/03 02:24:12;;;;;;;48.40;15.82;;;;;;;;;;5054379;28;20057;-91
2023/12/03 02:26:56;;;;;;;40.35;15.68;;;;;;;;;;5054224;28;20116;-91
2023/12/03 02:29:37;;;;;;;48.92;15.50;;;;;;;;;;5051388;28;20087;-91
2023/12/03 02:32:10;;;;;;;48.22;16.90;;;;;;;;;;5050712;28;20064;-91
2023/12/03 02:34:45;;;;;;;45.08;16.05;;;;;;;;;;5052188;28;20307;-91
2023/12/03 02:37:25;;;;;;;49.08;15.75;;;;;;;;;;5051969;28;20056;-91
2023/12/03 02:40:06;;;;;;;52.22;17.00;;;;;;;;;;5050811;28;20132;-90
2023/12/03 02:42:35;;;;;;;53.25;16.45;;;;;;;;;;5069759;28;20072;-90
2023/12/03 02:45:17;;;;;;;44.00;14.57;;;;;;;;;;5069133;28;20305;-90
2023/12/03 02:48:01;;;;;;;33.65;12.52;;;;;;;;;;5054998;28;20079;-90
2023/12/03 02:50:41;;;;;;;41.58;14.70;;;;;;;;;;5054334;28;20044;-91
2023/12/03 02:53:23;;;;;;;40.88;15.00;;;;;;;;;;5055103;28;20064;-90
2023/12/03 02:56:05;;;;;;;33.85;13.82;;;;;;;;;;5053216;28;20033;-91
2023/12/03 02:58:47;;;;;;;45.38;15.23;;;;;;;;;;5052210;28;20183;-91
2023/12/03 03:01:16;;;;;;;48.88;14.82;;;;;;;;;;5053494;28;20429;-91
2023/12/03 03:03:45;;;;;;;41.72;15.35;;;;;;;;;;5052736;28;20052;-91
2023/12/03 03:06:21;;;;;;;49.08;15.00;;;;;;;;;;5054598;28;20132;-91
2023/12/03 03:09:03;;;;;;;54.40;14.80;;;;;;;;;;5058114;28;20036;-90
2023/12/03 03:11:40;;;;;;;48.50;15.43;;;;;;;;;;5054346;28;20028;-91
2023/12/03 03:14:16;;;;;;;45.70;15.02;;;;;;;;;;5060006;28;20115;-90
2023/12/03 03:16:59;;;;;;;46.42;15.55;;;;;;;;;;5061014;28;20032;-92
2023/12/03 03:19:32;;;;;;;44.88;15.18;;;;;;;;;;5060604;28;20048;-91
2023/12/03 03:22:12;;;;;;;40.38;13.70;;;;;;;;;;5060948;28;20041;-91
2023/12/03 03:24:53;;;;;;;48.05;13.68;;;;;;;;;;5060466;28;20125;-91
2023/12/03 03:27:22;;;;;;;47.55;15.07;;;;;;;;;;5055926;22;20052;-91
2023/12/03 03:30:07;;;;;;;44.67;15.13;;;;;;;;;;5034979;28;20065;-90
2023/12/03 03:32:49;;;;;;;47.88;15.20;;;;;;;;;;5035254;28;20080;-90
2023/12/03 03:35:21;;;;;;;41.53;15.70;;;;;;;;;;5035032;28;20080;-91
2023/12/03 03:37:53;;;;;;;50.40;15.63;;;;;;;;;;5032653;28;20046;-90
2023/12/03 03:40:34;;;;;;;48.85;17.17;;;;;;;;;;5033218;28;20050;-91
2023/12/03 03:43:15;;;;;;;48.33;16.02;;;;;;;;;;5028657;28;20119;-91
2023/12/03 03:45:48;;;;;;;40.78;15.35;;;;;;;;;;5030884;28;20113;-91
2023/12/03 03:48:22;;;;;;;46.65;14.60;;;;;;;;;;5033955;28;20094;-91
2023/12/03 03:50:50;;;;;;;45.58;15.07;;;;;;;;;;5035748;28;20041;-91
2023/12/03 03:53:31;;;;;;;50.97;16.33;;;;;;;;;;5035071;28;20038;-91
2023/12/03 03:56:12;;;;;;;50.83;17.13;;;;;;;;;;5035030;28;20052;-91
2023/12/03 03:58:53;;;;;;;57.42;15.63;;;;;;;;;;5034200;28;20049;-91
2023/12/03 04:01:25;;;;;;;40.60;15.18;;;;;;;;;;5035154;28;20042;-91
2023/12/03 04:04:07;;;;;;;52.63;17.40;;;;;;;;;;5035405;28;20089;-91
2023/12/03 04:06:41;;;;;;;;;;;;;;;;;;5035421;28;20109;-92
2023/12/03 04:09:23;;;;;;;49.88;15.90;;;;;;;;;;5034211;28;19982;-91
2023/12/03 04:11:52;;;;;;;42.40;14.27;;;;;;;;;;5031839;28;20085;-92
2023/12/03 04:14:24;;;;;;;47.72;15.25;;;;;;;;;;5026719;28;20054;-92
2023/12/03 04:17:05;;;;;;;44.95;15.73;;;;;;;;;;5027151;28;20065;-91
2023/12/03 04:19:46;;;;;;;45.63;14.65;;;;;;;;;;5025662;28;20088;-90
2023/12/03 04:22:17;;;;;;;58.13;16.13;;;;;;;;;;5026156;28;20457;-90
2023/12/03 04:24:58;;;;;;;57.22;16.02;;;;;;;;;;5027041;28;20068;-92
2023/12/03 04:27:39;;;;;;;61.60;17.35;;;;;;;;;;5026785;28;20125;-91
2023/12/03 04:30:10;;;;;;;62.13;18.27;;;;;;;;;;5027342;28;20234;-91
2023/12/03 04:32:50;;;;;;;54.72;15.50;;;;;;;;;;5025118;28;20092;-92
2023/12/03 04:35:34;;;;;;;46.10;17.20;;;;;;;;;;5025332;28;20152;-90
2023/12/03 04:38:15;;;;;;;48.28;16.10;;;;;;;;;;5024622;28;20053;-91
2023/12/03 04:40:55;;;;;;;51.78;16.65;;;;;;;;;;5025348;28;20092;-90
2023/12/03 04:43:37;;;;;;;48.63;18.67;;;;;;;;;;5024458;28;20068;-91
2023/12/03 04:46:20;;;;;;;53.83;18.23;;;;;;;;;;5026259;28;20037;-91
2023/12/03 04:48:53;;;;;;;56.63;17.83;;;;;;;;;;5025367;28;20046;-91
2023/12/03 04:51:23;;;;;;;46.75;15.20;;;;;;;;;;5024751;28;20057;-91
2023/12/03 04:53:51;;;;;;;52.58;18.05;;;;;;;;;;5023534;28;20325;-91
2023/12/03 04:56:32;;;;;;;47.42;16.40;;;;;;;;;;5024793;28;20445;-92
2023/12/03 04:59:13;;;;;;;50.30;16.92;;;;;;;;;;5022839;28;20108;-92
2023/12/03 05:01:54;;;;;;;62.55;16.55;;;;;;;;;;5023049;28;20092;-91
2023/12/03 05:04:25;;;;;;;51.65;16.27;;;;;;;;;;5033506;28;20049;-91
2023/12/03 05:06:53;;;;;;;66.05;19.13;;;;;;;;;;5028667;28;20386;-91
2023/12/03 05:09:34;;;;;;;58.30;16.42;;;;;;;;;;5028930;28;20042;-91
2023/12/03 05:12:02;;;;;;;59.15;18.58;;;;;;;;;;5030104;28;20123;-90
2023/12/03 05:14:32;;;;;;;64.60;17.85;;;;;;;;;;5030254;28;20140;-90
2023/12/03 05:17:13;;;;;;;60.85;17.50;;;;;;;;;;5026568;28;20054;-92
2023/12/03 05:19:54;;;;;;;61.63;16.08;;;;;;;;;;5026591;28;20064;-91
2023/12/03 05:22:23;;;;;;;59.72;17.80;;;;;;;;;;5026978;28;20452;-91
2023/12/03 05:24:52;;;;;;;51.65;16.63;;;;;;;;;;5028821;28;20042;-91
2023/12/03 05:27:36;;;;;;;52.50;14.98;;;;;;;;;;5043278;28;20058;-91
2023/12/03 05:30:08;;;;;;;58.10;17.48;;;;;;;;;;5033481;28;20235;-91
2023/12/03 05:32:48;;;;;;;47.20;15.75;;;;;;;;;;5034881;28;20060;-91
2023/12/03 05:35:22;;;;;;;48.15;14.63;;;;;;;;;;5033104;28;20222;-91
2023/12/03 05:38:03;;;;;;;47.80;16.75;;;;;;;;;;5049105;28;20060;-91
2023/12/03 05:40:46;;;;;;;60.40;16.33;;;;;;;;;;5033894;28;20040;-91
2023/12/03 05:43:16;;;;;;;51.33;15.52;;;;;;;;;;5032948;28;20390;-91
2023/12/03 05:45:54;;;;;;;52.03;16.00;;;;;;;;;;5032944;28;20053;-90
2023/12/03 05:48:24;;;;;;;56.10;16.92;;;;;;;;;;5031901;28;20049;-91
2023/12/03 05:50:51;;;;;;;49.85;15.52;;;;;;;;;;5031965;28;20057;-91
2023/12/03 05:53:32;;;;;;;58.05;15.88;;;;;;;;;;5033164;28;20057;-90
2023/12/03 05:56:06;;;;;;;57.53;16.48;;;;;;;;;;5033331;28;20057;-91
2023/12/03 05:58:36;;;;;;;58.92;17.80;;;;;;;;;;5033343;28;20073;-91
2023/12/03 06:01:05;;;;;;;54.75;17.27;;;;;;;;;;5036194;28;20107;-91
2023/12/03 06:03:36;;;;;;;54.60;15.70;;;;;;;;;;5037079;28;20124;-90
2023/12/03 06:06:05;;;;;;;55.15;15.80;;;;;;;;;;5037225;28;20037;-91
2023/12/03 06:08:46;;;;;;;54.25;17.42;;;;;;;;;;5045977;28;20053;-92
2023/12/03 06:11:27;;;;;;;62.95;16.95;;;;;;;;;;5037342;28;20152;-89
2023/12/03 06:13:58;;;;;;;55.00;16.02;;;;;;;;;;5048269;28;20053;-90
2023/12/03 06:16:39;;;;;;;63.85;17.00;;;;;;;;;;5032370;28;20120;-91
2023/12/03 06:19:20;;;;;;;68.60;19.52;;;;;;;;;;5033149;28;20033;-90
2023/12/03 06:22:03;;;;;;;62.00;18.05;;;;;;;;;;5029559;28;20077;-91
2023/12/03 06:24:33;;;;;;;68.13;17.38;;;;;;;;;;5029494;28;20069;-91
2023/12/03 06:27:02;;;;;;;68.00;18.38;;;;;;;;;;5026099;28;20066;-91
2023/12/03 06:29:30;;;;;;;54.25;16.88;;;;;;;;;;5031242;28;20046;-91
2023/12/03 06:31:59;;;;;;;78.15;18.48;;;;;;;;;;5032722;28;20044;-91
2023/12/03 06:34:40;;;;;;;57.47;16.20;;;;;;;;;;5035934;28;20129;-90
2023/12/03 06:37:26;;;;;;;54.05;17.45;;;;;;;;;;5032487;28;20041;-89
2023/12/03 06:39:56;;;;;;;54.65;16.55;;;;;;;;;;5023466;28;20049;-89
2023/12/03 06:42:26;;;;;;;58.38;18.80;;;;;;;;;;5024976;28;20049;-89
2023/12/03 06:44:54;;;;;;;55.65;15.50;;;;;;;;;;5024102;28;20801;-90
2023/12/03 06:47:22;;;;;;;57.25;16.63;;;;;;;;;;5025200;28;20050;-90
2023/12/03 06:49:50;;;;;;;47.63;14.38;;;;;;;;;;5027430;28;20081;-89
2023/12/03 06:52:17;;;;;;;45.75;13.95;;;;;;;;;;5023603;28;20418;-90
2023/12/03 06:55:01;;;;;;;54.78;16.88;;;;;;;;;;5023257;28;20157;-89
2023/12/03 06:57:32;;;;;;;53.72;14.02;;;;;;;;;;5024014;28;20051;-89
2023/12/03 07:00:18;;;;;;;61.13;18.10;;;;;;;;;;5024454;28;20041;-90
2023/12/03 07:02:59;;;;;;;56.95;16.48;;;;;;;;;;5024939;28;20033;-89
2023/12/03 07:05:26;;;;;;;62.15;15.95;;;;;;;;;;5033900;28;20472;-89
2023/12/03 07:08:08;;;;;;;50.13;14.75;;;;;;;;;;5022843;28;20054;-88
2023/12/03 07:10:36;;;;;;;67.53;17.20;;;;;;;;;;5024199;28;20080;-90
2023/12/03 07:13:16;;;;;;;57.88;15.75;;;;;;;;;;5022297;28;20053;-89
2023/12/03 07:15:44;;;;;;;58.42;17.42;;;;;;;;;;5023114;28;20064;-89
2023/12/03 07:18:15;;;;;;;60.45;17.50;;;;;;;;;;5023262;28;20064;-90
2023/12/03 07:20:47;;;;;;;60.40;16.15;;;;;;;;;;5023171;28;20050;-91
2023/12/03 07:23:28;;;;;;;68.53;18.60;;;;;;;;;;5022468;28;20044;-88
2023/12/03 07:26:09;;;;;;;56.33;15.48;;;;;;;;;;5025027;28;20061;-90
2023/12/03 07:28:40;;;;;;;59.78;16.63;;;;;;;;;;5026184;28;20119;-89
2023/12/03 07:31:09;;;;;;;60.08;14.57;;;;;;;;;;5026988;28;20245;-90
2023/12/03 07:39:19;;;;;;;52.95;17.38;;;;;;;;;;5064018;28;20076;-90
2023/12/03 07:41:50;;;;;;;58.38;16.60;;;;;;;;;;5046556;28;20143;-90
2023/12/03 07:44:32;;;;;;;57.67;15.45;;;;;;;;;;5048950;28;20029;-90
2023/12/03 07:47:13;;;;;;;58.30;14.93;;;;;;;;;;5046806;28;20049;-90
2023/12/03 07:49:46;;;;;;;58.03;15.10;;;;;;;;;;5047618;28;20041;-91
2023/12/03 07:52:19;;;;;;;61.70;17.73;;;;;;;;;;5047372;28;20059;-90
2023/12/03 07:55:05;;;;;;;57.33;15.35;;;;;;;;;;5054687;28;20039;-90
2023/12/03 07:57:49;;;;;;;47.13;14.23;;;;;;;;;;5069297;28;20060;-90
2023/12/03 08:00:30;;;;;;;53.03;15.95;;;;;;;;;;5047361;28;20063;-89
2023/12/03 08:03:15;;;;;;;49.72;14.35;;;;;;;;;;5064884;28;20049;-90
2023/12/03 08:05:56;;;;;;;51.80;15.35;;;;;;;;;;5051008;28;20072;-90
2023/12/03 08:08:37;;;;;;;51.95;14.65;;;;;;;;;;5032006;28;20037;-90
2023/12/03 08:11:16;;;;;;;42.90;14.43;;;;;;;;;;5048056;28;20110;-90
2023/12/03 08:13:57;;;;;;;50.33;15.32;;;;;;;;;;5048301;28;20044;-90
2023/12/03 08:16:38;;;;;;;50.85;13.38;;;;;;;;;;5046600;28;20029;-90
2023/12/03 08:19:18;;;;;;;54.17;14.40;;;;;;;;;;5046119;28;20056;-90
2023/12/03 08:21:59;;;;;;;46.67;14.25;;;;;;;;;;5047730;28;20240;-90
2023/12/03 08:24:36;;;;;;;45.92;13.52;;;;;;;;;;5047842;28;20053;-90
2023/12/03 08:27:17;;;;;;;41.35;15.05;;;;;;;;;;5047653;28;20044;-91
2023/12/03 08:29:54;;;;;;;40.28;13.73;;;;;;;;;;5045392;28;20049;-90
2023/12/03 08:32:37;;;;;;;34.33;11.60;;;;;;;;;;5040721;28;20376;-89
2023/12/03 08:35:14;;;;;;;42.40;11.50;;;;;;;;;;5042700;28;20103;-88
2023/12/03 08:37:45;;;;;;;33.65;10.82;;;;;;;;;;5042118;28;20144;-89
2023/12/03 08:40:22;;;;;;;32.33;11.95;;;;;;;;;;5046867;28;20354;-90
2023/12/03 08:55:59;;;;;;;38.03;11.05;;;;;;;;;;5066494;28;20280;-90
2023/12/03 08:58:41;;;;;;;28.75;11.52;;;;;;;;;;5051981;28;20044;-90
2023/12/03 09:01:09;;;;;;;36.40;10.40;;;;;;;;;;5049895;28;20060;-89
2023/12/03 09:03:40;;;;;;;28.10;10.45;;;;;;;;;;5052388;28;20052;-90
2023/12/03 09:06:22;;;;;;;38.90;11.77;;;;;;;;;;5066166;28;20139;-91
2023/12/03 09:08:56;;;;;;;35.72;10.95;;;;;;;;;;5051299;28;20049;-90
2023/12/03 09:11:42;;;;;;;34.08;11.13;;;;;;;;;;5065304;28;20388;-91
2023/12/03 09:14:15;;;;;;;32.92;11.23;;;;;;;;;;5049329;28;20071;-90
2023/12/03 09:16:46;;;;;;;29.70;11.35;;;;;;;;;;5049495;28;20079;-91
2023/12/03 09:19:31;;;;;;;32.65;11.90;;;;;;;;;;5051191;28;20067;-90
2023/12/03 09:22:07;;;;;;;33.58;11.00;;;;;;;;;;5056613;28;20072;-90
2023/12/03 09:24:37;;;;;;;35.42;12.15;;;;;;;;;;5055776;28;20049;-89
2023/12/03 09:27:08;;;;;;;32.80;10.45;;;;;;;;;;5051154;28;20052;-91
2023/12/03 09:29:49;;;;;;;39.55;12.25;;;;;;;;;;5051260;28;20041;-90
2023/12/03 09:32:31;;;;;;;35.05;10.75;;;;;;;;;;5050721;28;20049;-90
2023/12/03 09:35:12;;;;;;;43.10;12.77;;;;;;;;;;5051108;28;20057;-91
2023/12/03 09:37:46;;;;;;;39.15;11.25;;;;;;;;;;5069270;28;20080;-91
2023/12/03 09:40:16;;;;;;;36.40;11.75;;;;;;;;;;5050555;28;20055;-90
2023/12/03 09:42:50;;;;;;;40.03;12.13;;;;;;;;;;5049164;28;20076;-91
2023/12/03 09:45:28;;;;;;;39.00;11.93;;;;;;;;;;5037173;28;20077;-91
2023/12/03 09:47:59;;;;;;;66.43;17.27;;;;;;;;;;5057540;28;20052;-91
2023/12/03 09:50:44;;;;;;;45.17;14.27;;;;;;;;;;5050933;28;20349;-90
2023/12/03 09:53:26;;;;;;;42.28;12.35;;;;;;;;;;5047881;28;20036;-90
2023/12/03 09:56:07;;;;;;;35.58;11.15;;;;;;;;;;5048107;28;20083;-90
2023/12/03 09:58:45;;;;;;;41.67;11.82;;;;;;;;;;5064282;28;20060;-90
2023/12/03 10:01:16;;;;;;;55.15;12.82;;;;;;;;;;5063957;28;20045;-90
2023/12/03 10:03:45;;;;;;;37.28;12.82;;;;;;;;;;5047299;28;20055;-90
2023/12/03 10:06:19;;;;;;;44.95;11.93;;;;;;;;;;5064870;28;20117;-90
2023/12/03 10:08:54;;;;;;;40.33;13.43;;;;;;;;;;5065585;28;20053;-91
2023/12/03 10:11:39;;;;;;;40.10;12.75;;;;;;;;;;5049774;28;20060;-90
2023/12/03 10:14:09;;;;;;;38.30;12.73;;;;;;;;;;5046495;28;20061;-90
2023/12/03 10:16:39;;;;;;;39.28;13.57;;;;;;;;;;5046704;28;20378;-90
2023/12/03 10:19:23;;;;;;;41.88;12.60;;;;;;;;;;5047083;28;20053;-90
2023/12/03 10:22:04;;;;;;;43.80;12.23;;;;;;;;;;5047298;28;20088;-90
2023/12/03 10:24:46;;;;;;;41.95;12.20;;;;;;;;;;5046882;28;20060;-90
2023/12/03 10:27:18;;;;;;;33.65;12.98;;;;;;;;;;5049031;28;20059;-90
2023/12/03 10:29:46;;;;;;;35.25;12.70;;;;;;;;;;5048703;28;20220;-90
2023/12/03 10:32:16;;;;;;;34.97;11.77;;;;;;;;;;5048678;28;20056;-90
2023/12/03 10:34:54;;;;;;;30.73;11.30;;;;;;;;;;5049243;28;20049;-90
2023/12/03 10:37:30;;;;;;;41.80;12.85;;;;;;;;;;5050732;28;20110;-91
2023/12/03 10:40:02;;;;;;;49.63;13.13;;;;;;;;;;5047298;28;20075;-90
2023/12/03 10:42:35;;;;;;;40.42;12.43;;;;;;;;;;5063523;28;20053;-89
2023/12/03 10:45:16;;;;;;;32.83;11.10;;;;;;;;;;5046490;28;20072;-90
2023/12/03 10:47:52;;;;;;;36.53;10.98;;;;;;;;;;5047465;28;20205;-90
2023/12/03 10:50:35;;;;;;;32.33;11.80;;;;;;;;;;5066351;28;20180;-91
2023/12/03 10:53:19;;;;;;;37.28;12.30;;;;;;;;;;5050491;28;20057;-90
2023/12/03 10:56:03;;;;;;;35.40;12.43;;;;;;;;;;5046784;28;20053;-90
2023/12/03 10:58:37;;;;;;;37.70;11.82;;;;;;;;;;5046504;28;20209;-90
2023/12/03 11:01:08;;;;;;;39.47;11.20;;;;;;;;;;5044646;28;20444;-90
2023/12/03 11:03:46;;;;;;;30.92;10.23;;;;;;;;;;5046912;28;20049;-90
2023/12/03 11:06:24;;;;;;;36.63;10.65;;;;;;;;;;5048314;28;20060;-90
2023/12/03 11:09:07;;;;;;;38.42;12.63;;;;;;;;;;5048888;28;20049;-91
2023/12/03 11:11:38;;;;;;;36.45;11.02;;;;;;;;;;5046523;28;20341;-89
2023/12/03 11:14:10;;;;;;;37.15;12.07;;;;;;;;;;5047929;28;20250;-91
2023/12/03 11:16:58;;;;;;;46.00;16.27;;;;;;;;;;5048970;28;20041;-90
2023/12/03 11:19:29;;;;;;;70.15;31.73;;;;;;;;;;5049121;28;20049;-90
2023/12/03 11:22:32;;;;;;;26.88;11.35;;;;;;;;;;5049509;28;20049;-91
2023/12/03 11:25:18;;;;;;;40.42;14.32;;;;;;;;;;5049545;28;20055;-91
2023/12/03 11:27:51;;;;;;;30.52;14.82;;;;;;;;;;5050025;28;20049;-91
2023/12/03 11:30:42;;;;;;;37.63;9.93;;;;;;;;;;5047317;28;20076;-91
2023/12/03 11:33:13;;;;;;;25.25;9.43;;;;;;;;;;5044691;28;20176;-90
2023/12/03 11:35:42;;;;;;;39.80;13.10;;;;;;;;;;5045379;28;20065;-90
2023/12/03 11:40:53;;;;;;;35.30;13.23;;;;;;;;;;5061155;28;20044;-90
2023/12/03 11:43:25;;;;;;;30.30;12.52;;;;;;;;;;5046341;28;20048;-89
2023/12/03 11:45:54;;;;;;;34.15;15.82;;;;;;;;;;5046846;28;20061;-90
2023/12/03 11:48:27;;;;;;;33.63;15.82;;;;;;;;;;5046759;28;20055;-90
2023/12/03 11:51:18;;;;;;;23.25;10.00;;;;;;;;;;5050950;28;20055;-92
2023/12/03 11:54:01;;;;;;;36.60;13.15;;;;;;;;;;5052791;28;20054;-89
2023/12/03 11:56:42;;;;;;;24.67;9.55;;;;;;;;;;5048280;28;20157;-90
2023/12/03 11:59:23;;;;;;;22.92;9.93;;;;;;;;;;5049786;28;20041;-90
2023/12/03 12:01:54;;;;;;;25.85;10.35;;;;;;;;;;5048362;28;20173;-90
2023/12/03 12:04:29;;;;;;;22.75;8.30;;;;;;;;;;5064927;28;20041;-90
2023/12/03 12:07:17;;;;;;;40.97;20.90;;;;;;;;;;5049679;28;20071;-90
2023/12/03 12:09:52;;;;;;;40.47;22.38;;;;;;;;;;5047176;28;20060;-90
2023/12/03 12:12:54;;;;;;;27.23;10.35;;;;;;;;;;5124966;27;20158;-90
2023/12/03 12:15:23;;;;;;;29.98;11.98;;;;;;;;;;5106721;28;20048;-89
2023/12/03 12:18:08;;;;;;;15.95;6.68;;;;;;;;;;5109669;28;20069;-91
2023/12/03 12:20:49;;;;;;;36.03;14.80;;;;;;;;;;5242349;22;20097;-90
2023/12/03 12:23:25;;;;;;;29.73;16.65;;;;;;;;;;5101947;28;20079;-90
2023/12/03 12:25:56;;;;;;;31.30;14.35;;;;;;;;;;5196385;22;20483;-90
2023/12/03 12:28:30;;;;;;;34.85;11.93;;;;;;;;;;5080870;28;20393;-91
2023/12/03 12:31:02;;;;;;;;;;;;;;;;;;5086330;28;20079;-91
2023/12/03 12:33:45;;;;;;;30.35;9.07;;;;;;;;;;5085499;28;19919;-90
2023/12/03 12:36:52;;;;;;;40.63;16.10;;;;;;;;;;5079286;28;20080;-90
2023/12/03 12:42:24;;;;;;;13.35;6.10;;;;;;;;;;5086437;28;20102;-90
2023/12/03 12:44:55;;;;;;;30.00;10.48;;;;;;;;;;5082229;28;20064;-91
2023/12/03 12:47:33;;;;;;;22.15;8.38;;;;;;;;;;5084160;28;20048;-90
2023/12/03 12:50:02;;;;;;;24.30;6.88;;;;;;;;;;5084565;28;20056;-90
2023/12/03 12:52:34;;;;;;;33.13;8.02;;;;;;;;;;5082363;28;20101;-90
2023/12/03 12:55:05;;;;;;;;;;;;;;;;;;5105532;28;20024;-91
2023/12/03 12:57:39;;;;;;;19.60;6.85;;;;;;;;;;5111732;28;20062;-90
2023/12/03 13:00:11;;;;;;;26.55;7.63;;;;;;;;;;5105902;28;20071;-91
2023/12/03 13:02:42;;;;;;;42.38;16.90;;;;;;;;;;5093767;28;20039;-91
2023/12/03 13:05:17;;;;;;;24.95;8.57;;;;;;;;;;5106844;28;20052;-91
2023/12/03 13:07:44;;;;;;;20.48;8.27;;;;;;;;;;5085755;28;20080;-91
2023/12/03 13:10:14;;;;;;;16.50;7.80;;;;;;;;;;5093224;28;20036;-91
2023/12/03 13:12:50;;;;;;;15.48;6.15;;;;;;;;;;5094593;28;20036;-90
2023/12/03 13:15:18;;;;;;;18.38;7.25;;;;;;;;;;5093031;28;20036;-90
2023/12/03 13:17:52;;;;;;;26.48;10.98;;;;;;;;;;5110175;28;20310;-91
2023/12/03 13:20:26;;;;;;;33.88;16.33;;;;;;;;;;5092430;28;20040;-91
2023/12/03 13:22:54;;;;;;;50.50;18.75;;;;;;;;;;5079778;28;20055;-90
2023/12/03 13:25:25;;;;;;;23.08;7.85;;;;;;;;;;5071038;28;20079;-90
2023/12/03 13:27:53;;;;;;;21.40;7.05;;;;;;;;;;5070114;28;20079;-90
2023/12/03 13:30:23;;;;;;;25.08;8.00;;;;;;;;;;5070190;28;20355;-90
2023/12/03 13:32:54;;;;;;;21.23;7.80;;;;;;;;;;5087441;28;20044;-90
2023/12/03 13:35:34;;;;;;;21.58;7.18;;;;;;;;;;5087326;28;20132;-91
2023/12/03 13:38:02;;;;;;;33.17;11.57;;;;;;;;;;5068219;28;20079;-91
2023/12/03 13:40:37;;;;;;;21.42;8.75;;;;;;;;;;5070082;28;20270;-91
2023/12/03 13:43:06;;;;;;;25.90;7.32;;;;;;;;;;5069435;28;20081;-91
2023/12/03 13:45:35;;;;;;;27.05;8.45;;;;;;;;;;5086479;28;20130;-91
2023/12/03 13:48:03;;;;;;;28.08;9.20;;;;;;;;;;5093244;28;20048;-90
2023/12/03 13:50:37;;;;;;;25.42;9.35;;;;;;;;;;5069906;28;20104;-91
2023/12/03 13:53:05;;;;;;;29.17;9.30;;;;;;;;;;5069541;28;20052;-90
2023/12/03 13:55:37;;;;;;;23.73;8.48;;;;;;;;;;5070014;28;20060;-91
2023/12/03 13:58:04;;;;;;;23.08;7.35;;;;;;;;;;5068780;28;20055;-90
2023/12/03 14:00:33;;;;;;;27.00;9.30;;;;;;;;;;5089837;28;20083;-90
2023/12/03 14:03:06;;;;;;;33.78;8.20;;;;;;;;;;5069279;28;20054;-91
2023/12/03 14:05:37;;;;;;;25.73;8.55;;;;;;;;;;5068952;28;20071;-91
2023/12/03 14:08:10;;;;;;;;;;;;;;;;;;5069180;28;20087;-90
2023/12/03 14:10:41;;;;;;;30.50;8.93;;;;;;;;;;5059358;28;19920;-90
2023/12/03 14:13:13;;;;;;;33.50;9.27;;;;;;;;;;5068133;28;20048;-90
2023/12/03 14:15:41;;;;;;;29.70;8.93;;;;;;;;;;5069854;28;20048;-90
2023/12/03 14:18:09;;;;;;;23.30;9.02;;;;;;;;;;5067293;28;20428;-91
2023/12/03 14:20:49;;;;;;;23.63;9.18;;;;;;;;;;5067755;28;20051;-90
2023/12/03 14:23:26;;;;;;;30.63;10.32;;;;;;;;;;5070407;28;20053;-91
2023/12/03 14:26:03;;;;;;;34.88;11.32;;;;;;;;;;5071228;28;20044;-91
2023/12/03 14:28:32;;;;;;;29.48;9.63;;;;;;;;;;5067388;28;20129;-91
2023/12/03 14:31:02;;;;;;;30.13;10.32;;;;;;;;;;5068312;28;20102;-90
2023/12/03 14:33:33;;;;;;;26.35;8.98;;;;;;;;;;5067980;28;20063;-90
2023/12/03 14:36:06;;;;;;;28.90;10.60;;;;;;;;;;5066913;28;20064;-91
2023/12/03 14:38:34;;;;;;;32.30;9.88;;;;;;;;;;5070377;28;20219;-91
2023/12/03 14:41:05;;;;;;;35.05;11.85;;;;;;;;;;5069156;28;20059;-90
2023/12/03 14:43:34;;;;;;;35.95;11.63;;;;;;;;;;5066508;28;20082;-91
2023/12/03 14:46:20;;;;;;;26.83;10.63;;;;;;;;;;5067620;28;20087;-90
2023/12/03 14:48:49;;;;;;;29.08;11.55;;;;;;;;;;5065472;28;20147;-90
2023/12/03 14:51:20;;;;;;;29.98;11.77;;;;;;;;;;5065390;28;20257;-90
2023/12/03 14:53:57;;;;;;;32.67;10.57;;;;;;;;;;5069186;28;20105;-91
2023/12/03 14:56:39;;;;;;;28.98;11.02;;;;;;;;;;5069439;28;20131;-92
2023/12/03 14:59:20;;;;;;;28.02;11.90;;;;;;;;;;5068988;28;20106;-91
2023/12/03 15:01:52;;;;;;;27.35;12.25;;;;;;;;;;5068139;28;20161;-92
2023/12/03 15:04:23;;;;;;;27.45;11.60;;;;;;;;;;5069695;28;20044;-91
2023/12/03 15:06:55;;;;;;;60.17;30.05;;;;;;;;;;5069587;28;20198;-90
2023/12/03 15:09:25;;;;;;;47.13;21.58;;;;;;;;;;5087063;28;20070;-91
2023/12/03 15:11:53;;;;;;;45.95;22.80;;;;;;;;;;5072583;28;20051;-92
2023/12/03 15:14:23;;;;;;;27.63;12.55;;;;;;;;;;5076024;28;20036;-92
2023/12/03 15:16:54;;;;;;;48.00;19.10;;;;;;;;;;5074074;28;20082;-91
2023/12/03 15:19:21;;;;;;;105.32;47.97;;;;;;;;;;5066532;28;20041;-91
2023/12/03 15:21:52;;;;;;;106.07;46.45;;;;;;;;;;5084035;28;20136;-91
2023/12/03 15:24:22;;;;;;;41.95;16.85;;;;;;;;;;5070335;28;20192;-90
2023/12/03 15:26:50;;;;;;;45.30;23.30;;;;;;;;;;5071464;28;20052;-91
2023/12/03 15:29:18;;;;;;;33.92;14.18;;;;;;;;;;5085540;28;20334;-91
2023/12/03 15:32:01;;;;;;;35.20;12.85;;;;;;;;;;5084142;28;20048;-91
2023/12/03 15:34:33;;;;;;;29.50;11.35;;;;;;;;;;5067437;28;20052;-91
2023/12/03 15:37:16;;;;;;;55.03;12.48;;;;;;;;;;5068342;28;20048;-90
2023/12/03 15:39:45;;;;;;;34.97;11.85;;;;;;;;;;5065058;28;20132;-91